createdAt,value
2019-03-19T00:01:58.420Z,100522.89
2019-03-19T00:07:01.985Z,100520.63
2019-03-19T00:12:05.530Z,100525.55
2019-03-19T00:17:09.075Z,100525.57
2019-03-19T00:22:12.664Z,100537.12
2019-03-19T00:27:16.194Z,100538.87
2019-03-19T00:32:19.732Z,100542.98
2019-03-19T00:37:23.298Z,100547.89
2019-03-19T00:42:26.859Z,100553.41
2019-03-19T00:47:30.375Z,100550.13
2019-03-19T00:52:33.942Z,100558.63
2019-03-19T00:57:37.508Z,100568.38
2019-03-19T01:02:41.037Z,100578.14
2019-03-19T01:07:44.569Z,100577.73
2019-03-19T01:12:48.117Z,100587.91
2019-03-19T01:17:51.683Z,100586.16
2019-03-19T01:22:55.243Z,100587.48
2019-03-19T01:27:58.770Z,100600.70
2019-03-19T01:33:02.327Z,100599.31
2019-03-19T01:38:05.864Z,100602.42
2019-03-19T01:43:09.399Z,100601.14
2019-03-19T01:48:12.964Z,100594.09
2019-03-19T01:53:16.516Z,100603.50
2019-03-19T01:58:20.107Z,100601.91
2019-03-19T02:03:23.655Z,100603.27
2019-03-19T02:08:27.193Z,100606.14
2019-03-19T02:13:30.793Z,100615.22
2019-03-19T02:18:34.312Z,100612.67
2019-03-19T02:23:37.852Z,100614.02
2019-03-19T02:28:41.420Z,100616.61
2019-03-19T02:33:44.953Z,100617.72
2019-03-19T02:38:49.025Z,100624.84
2019-03-19T02:43:52.555Z,100639.60
2019-03-19T02:48:56.101Z,100640.74
2019-03-19T02:54:00.072Z,100654.16
2019-03-19T02:59:03.626Z,100654.61
2019-03-19T03:04:07.192Z,100676.66
2019-03-19T03:09:10.762Z,100685.41
2019-03-19T03:14:14.360Z,100680.54
2019-03-19T03:19:17.878Z,100686.77
2019-03-19T03:24:21.556Z,100684.00
2019-03-19T03:29:25.107Z,100683.05
2019-03-19T03:34:28.670Z,100691.46
2019-03-19T03:39:32.207Z,100694.66
2019-03-19T03:44:35.767Z,100684.16
2019-03-19T03:49:39.330Z,100698.81
2019-03-19T03:54:42.885Z,100700.82
2019-03-19T03:59:46.432Z,100710.19
2019-03-19T04:04:49.975Z,100716.69
2019-03-19T04:09:53.583Z,100721.63
2019-03-19T04:14:57.113Z,100728.36
2019-03-19T04:20:00.742Z,100737.25
2019-03-19T04:25:04.905Z,100740.09
2019-03-19T04:30:13.512Z,100748.55
2019-03-19T04:35:17.071Z,100756.16
2019-03-19T04:40:20.603Z,100768.83
2019-03-19T04:45:24.193Z,100775.36
2019-03-19T04:50:27.707Z,100781.86
2019-03-19T04:55:31.280Z,100781.94
2019-03-19T05:00:34.841Z,100788.94
2019-03-19T05:05:38.422Z,100801.97
2019-03-19T05:10:41.944Z,100808.39
2019-03-19T05:15:45.613Z,100812.94
2019-03-19T05:20:49.171Z,100815.16
2019-03-19T05:25:52.729Z,100823.34
2019-03-19T05:30:56.266Z,100828.69
2019-03-19T05:35:59.842Z,100831.33
2019-03-19T05:41:03.385Z,100838.47
2019-03-19T05:46:06.973Z,100847.02
2019-03-19T05:51:10.536Z,100853.85
2019-03-19T05:56:14.347Z,100860.20
2019-03-19T06:01:17.871Z,100864.16
2019-03-19T06:06:21.541Z,100870.47
2019-03-19T06:11:25.088Z,100877.69
2019-03-19T06:16:28.644Z,100886.05
2019-03-19T06:21:32.230Z,100889.09
2019-03-19T06:26:35.753Z,100894.29
2019-03-19T06:31:39.359Z,100894.87
2019-03-19T06:36:42.897Z,100902.22
2019-03-19T06:41:46.433Z,100897.39
2019-03-19T06:46:50.096Z,100905.66
2019-03-19T06:51:53.618Z,100924.33
2019-03-19T06:56:57.195Z,100936.73
2019-03-19T07:02:00.761Z,100945.27
2019-03-19T07:07:05.228Z,100949.61
2019-03-19T07:12:08.755Z,100939.96
2019-03-19T07:17:12.304Z,100954.58
2019-03-19T07:22:15.851Z,100965.19
2019-03-19T07:27:19.421Z,100965.44
2019-03-19T07:32:22.968Z,100970.36
2019-03-19T07:37:26.563Z,100974.64
2019-03-19T07:42:30.090Z,100966.73
2019-03-19T07:50:47.201Z,100963.16
2019-03-19T07:55:52.479Z,100968.89
2019-03-19T08:00:56.051Z,100962.77
2019-03-19T08:05:59.775Z,100953.84
2019-03-19T08:11:03.327Z,100964.92
2019-03-19T08:16:06.866Z,100952.65
2019-03-19T08:21:10.437Z,100979.27
2019-03-19T08:26:13.995Z,100978.45
2019-03-19T08:31:17.524Z,100991.80
2019-03-19T08:36:21.180Z,101001.16
2019-03-19T08:41:24.711Z,101001.18
2019-03-19T08:46:28.729Z,101002.98
2019-03-19T08:51:32.301Z,101000.33
2019-03-19T08:56:35.847Z,101000.33
2019-03-19T09:01:39.394Z,101003.49
2019-03-19T09:06:42.944Z,101019.90
2019-03-19T09:11:46.677Z,101024.34
2019-03-19T09:16:50.261Z,101027.01
2019-03-19T09:21:53.862Z,101029.69
2019-03-19T09:26:57.437Z,101038.57
2019-03-19T09:32:01.017Z,101047.02
2019-03-19T09:37:05.047Z,101056.33
2019-03-19T09:42:08.598Z,101057.66
2019-03-19T09:47:12.264Z,101067.40
2019-03-19T09:52:15.792Z,101056.71
2019-03-19T09:57:19.359Z,101063.22
2019-03-19T10:02:23.842Z,101055.61
2019-03-19T10:07:27.582Z,101051.09
2019-03-19T10:12:31.132Z,101060.71
2019-03-19T10:17:34.754Z,101046.21
2019-03-19T10:22:38.308Z,101059.98
2019-03-19T10:27:41.992Z,101064.88
2019-03-19T10:32:45.537Z,101071.53
2019-03-19T10:37:49.105Z,101067.13
2019-03-19T10:42:52.639Z,101065.39
2019-03-19T10:47:56.223Z,101072.97
2019-03-19T10:52:59.876Z,101075.63
2019-03-19T10:58:10.849Z,101066.77
2019-03-19T11:03:08.856Z,101071.72
2019-03-19T11:08:12.484Z,101097.89
2019-03-19T11:13:16.096Z,101103.25
2019-03-19T11:18:19.717Z,101100.16
2019-03-19T11:23:23.344Z,101100.63
2019-03-19T11:28:26.889Z,101098.37
2019-03-19T11:33:30.488Z,101104.59
2019-03-19T11:38:34.039Z,101109.89
2019-03-19T11:43:37.613Z,101104.56
2019-03-19T11:48:41.187Z,101098.77
2019-03-19T11:53:44.717Z,101102.75
2019-03-19T11:58:48.263Z,101109.38
2019-03-19T12:03:52.448Z,101116.42
2019-03-19T12:08:55.979Z,101119.52
2019-03-19T12:13:59.661Z,101116.86
2019-03-19T12:19:03.187Z,101120.11
2019-03-19T12:24:06.753Z,101116.98
2019-03-19T12:29:10.279Z,101123.06
2019-03-19T12:34:13.928Z,101102.84
2019-03-19T12:39:17.477Z,101110.36
2019-03-19T12:44:21.051Z,101106.16
2019-03-19T12:49:24.704Z,101116.54
2019-03-19T12:54:28.229Z,101115.44
2019-03-19T12:59:31.821Z,101117.60
2019-03-19T13:04:35.350Z,101110.34
2019-03-19T13:09:38.927Z,101115.58
2019-03-19T13:14:42.498Z,101113.47
2019-03-19T13:19:46.105Z,101112.19
2019-03-19T13:24:49.678Z,101103.19
2019-03-19T13:29:53.231Z,101107.42
2019-03-19T13:34:56.903Z,101097.67
2019-03-19T13:40:00.496Z,101112.59
2019-03-19T13:45:07.510Z,101099.59
2019-03-19T13:50:12.990Z,101109.38
2019-03-19T13:55:17.787Z,101116.05
2019-03-19T14:00:21.757Z,101117.60
2019-03-19T14:05:25.277Z,101119.26
2019-03-19T14:10:28.805Z,101113.53
2019-03-19T14:15:32.370Z,101116.82
2019-03-19T14:20:35.941Z,101117.87
2019-03-19T14:25:39.461Z,101127.12
2019-03-19T14:30:43.104Z,101127.33
2019-03-19T14:35:46.718Z,101134.38
2019-03-19T14:40:50.289Z,101130.32
2019-03-19T14:45:53.866Z,101133.05
2019-03-19T14:50:57.413Z,101137.31
2019-03-19T14:56:00.984Z,101144.77
2019-03-19T15:01:04.979Z,101141.94
2019-03-19T15:06:08.535Z,101139.78
2019-03-19T15:11:12.081Z,101141.98
2019-03-19T15:16:17.717Z,101147.28
2019-03-19T15:21:21.807Z,101149.77
2019-03-19T15:26:27.737Z,101148.81
2019-03-19T15:31:31.385Z,101156.34
2019-03-19T15:36:35.056Z,101170.32
2019-03-19T15:41:38.667Z,101171.59
2019-03-19T15:46:42.290Z,101173.88
2019-03-19T15:51:45.850Z,101178.05
2019-03-19T15:56:49.521Z,101185.80
2019-03-19T16:01:53.058Z,101189.86
2019-03-19T16:06:56.619Z,101206.70
2019-03-19T16:12:00.187Z,101206.70
2019-03-19T16:17:03.730Z,101216.94
2019-03-19T16:22:07.303Z,101235.28
2019-03-19T16:27:10.985Z,101232.53
2019-03-19T16:32:14.579Z,101237.75
2019-03-19T16:37:18.780Z,101245.16
2019-03-19T16:42:22.441Z,101245.81
2019-03-19T16:47:26.053Z,101265.68
2019-03-19T16:52:29.823Z,101268.41
2019-03-19T16:57:33.499Z,101283.64
2019-03-19T17:02:37.202Z,101289.02
2019-03-19T17:07:40.745Z,101294.37
2019-03-19T17:12:44.341Z,101298.35
2019-03-19T17:17:48.043Z,101307.66
2019-03-19T17:22:51.591Z,101305.38
2019-03-19T17:27:55.198Z,101308.77
2019-03-19T17:32:58.819Z,101314.06
2019-03-19T17:38:02.403Z,101331.37
2019-03-19T17:43:06.009Z,101335.35
2019-03-19T17:48:16.053Z,101341.27
2019-03-19T17:53:14.865Z,101344.69
2019-03-19T17:58:18.409Z,101346.55
2019-03-19T18:03:21.993Z,101351.19
2019-03-19T18:08:25.694Z,101358.99
2019-03-19T18:13:29.273Z,101368.47
2019-03-19T18:18:32.861Z,101370.48
2019-03-19T18:23:36.435Z,101378.62
2019-03-19T18:28:40.009Z,101376.88
2019-03-19T18:33:43.580Z,101381.83
2019-03-19T18:38:47.146Z,101391.54
2019-03-19T18:43:50.683Z,101398.59
2019-03-19T18:48:54.283Z,101413.39
2019-03-19T18:53:57.853Z,101413.39
2019-03-19T18:59:01.646Z,101419.31
2019-03-19T19:04:05.184Z,101415.73
2019-03-19T19:09:09.129Z,101430.47
2019-03-19T19:14:12.699Z,101430.09
2019-03-19T19:19:16.281Z,101439.14
2019-03-19T19:24:19.857Z,101430.63
2019-03-19T19:29:23.441Z,101439.27
2019-03-19T19:34:27.021Z,101443.55
2019-03-19T19:39:30.599Z,101449.14
2019-03-19T19:44:34.170Z,101448.14
2019-03-19T19:49:37.744Z,101460.34
2019-03-19T19:54:41.594Z,101461.16
2019-03-19T19:59:45.219Z,101471.13
2019-03-19T20:04:48.850Z,101478.52
2019-03-19T20:09:52.400Z,101490.80
2019-03-19T20:14:55.998Z,101490.60
2019-03-19T20:19:59.552Z,101488.30
2019-03-19T20:25:03.127Z,101505.44
2019-03-19T20:30:15.926Z,101504.02
2019-03-19T20:35:19.499Z,101510.09
2019-03-19T20:40:23.051Z,101517.17
2019-03-19T20:45:28.225Z,101524.08
2019-03-19T20:50:34.289Z,101523.19
2019-03-19T20:55:37.856Z,101534.14
2019-03-19T21:00:41.429Z,101535.33
2019-03-19T21:05:44.971Z,101536.14
2019-03-19T21:10:48.547Z,101538.22
2019-03-19T21:15:52.126Z,101543.05
2019-03-19T21:20:55.677Z,101545.27
2019-03-19T21:25:59.227Z,101543.51
2019-03-19T21:31:02.809Z,101549.70
2019-03-19T21:36:06.379Z,101552.14
2019-03-19T21:41:09.926Z,101560.34
2019-03-19T21:46:13.520Z,101559.72
2019-03-19T21:51:17.081Z,101562.71
2019-03-19T21:56:20.650Z,101572.14
2019-03-19T22:01:24.212Z,101572.14
2019-03-19T22:06:28.663Z,101570.78
2019-03-19T22:11:32.945Z,101570.69
2019-03-19T22:16:36.508Z,101570.60
2019-03-19T22:21:40.086Z,101575.10
2019-03-19T22:26:43.671Z,101593.11
2019-03-19T22:31:47.322Z,101592.20
2019-03-19T22:36:51.045Z,101592.38
2019-03-19T22:41:54.648Z,101593.70
2019-03-19T22:46:58.198Z,101590.00
2019-03-19T22:52:01.824Z,101597.00
2019-03-19T22:57:05.444Z,101599.04
2019-03-19T23:02:09.000Z,101607.29
2019-03-19T23:07:12.703Z,101608.41
2019-03-19T23:12:16.290Z,101616.03
2019-03-19T23:17:19.950Z,101621.92
2019-03-19T23:22:23.525Z,101625.45
2019-03-19T23:27:27.168Z,101633.23
2019-03-19T23:32:30.785Z,101637.88
2019-03-19T23:37:34.307Z,101639.15
2019-03-19T23:42:37.860Z,101641.75
2019-03-19T23:47:41.434Z,101644.19
2019-03-19T23:52:45.018Z,101642.70
2019-03-19T23:57:48.834Z,101646.48
